.
WxDataArchive / Data Records for 2007-01-31
2007-01-30 January 2007 2007-02-01

Data Records for Wednesday, 31 January 2007

Time	Temp	Chill	HIndex	Humid	Dewpt	 Wind 	HiWind	WindDir	Rain 	Barom 
-----	----	-----	------	-----	-----	------	------	-------	-----	----- 
00:00	10.2	10.2	10.2	78	4.7	2	6	270	0.00	30.152 
00:05	10.2	10.2	10.2	78	4.7	3	7	270	0.00	30.152 
00:10	10.2	10.2	10.2	78	4.7	2	6	270	0.00	30.152 
00:15	10.0	10.0	10.0	78	4.5	2	5	270	0.00	30.156 
00:20	10.0	10.0	10.0	78	4.5	2	5	270	0.00	30.156 
00:25	10.0	10.0	10.0	78	4.5	2	6	270	0.00	30.156 
00:30	10.0	10.0	10.0	78	4.5	2	7	270	0.00	30.161 
00:35	10.0	10.0	10.0	78	4.5	2	9	270	0.00	30.161 
00:40	10.0	10.0	10.0	78	4.5	2	6	270	0.00	30.161 
00:45	9.9	9.9	9.9	78	4.4	2	9	270	0.00	30.160 
00:50	9.9	9.9	9.9	78	4.4	2	4	270	0.00	30.160 
00:55	9.7	9.7	9.7	77	4.0	1	4	270	0.00	30.160 
01:00	9.5	9.5	9.5	78	4.0	1	5	270	0.00	30.162 
01:05	9.5	9.5	9.5	78	4.0	2	7	270	0.00	30.162 
01:10	9.5	9.5	9.5	78	4.0	1	4	270	0.00	30.162 
01:15	9.3	9.3	9.3	78	3.9	1	4	270	0.00	30.164 
01:20	9.3	9.3	9.3	78	3.9	2	5	270	0.00	30.164 
01:25	9.3	9.3	9.3	78	3.9	1	7	270	0.00	30.164 
01:30	9.3	9.3	9.3	78	3.9	3	9	270	0.00	30.160 
01:35	9.3	9.3	9.3	78	3.9	1	5	270	0.00	30.160 
01:40	9.2	9.2	9.2	78	3.8	2	6	270	0.00	30.160 
01:45	9.2	9.2	9.2	78	3.8	2	6	270	0.00	30.161 
01:50	9.0	9.0	9.0	78	3.6	1	6	248	0.00	30.161 
01:55	8.8	8.8	8.8	78	3.4	2	6	270	0.00	30.161 
02:00	8.8	8.8	8.8	78	3.4	1	9	270	0.00	30.162 
02:05	8.8	8.8	8.8	78	3.4	1	9	270	0.00	30.162 
02:10	8.6	8.6	8.6	78	3.2	3	6	270	0.00	30.162 
02:15	8.6	8.6	8.6	78	3.2	2	6	270	0.00	30.163 
02:20	8.6	8.6	8.6	78	3.2	2	7	248	0.00	30.163 
02:25	8.4	8.4	8.4	78	3.0	2	6	270	0.00	30.163 
02:30	8.3	8.3	8.3	78	2.9	2	6	248	0.00	30.166 
02:35	8.3	8.3	8.3	78	2.9	3	7	248	0.00	30.166 
02:40	8.3	8.3	8.3	78	2.9	2	7	248	0.00	30.166 
02:45	8.1	8.1	8.1	78	2.7	2	6	248	0.00	30.172 
02:50	7.9	7.9	7.9	78	2.5	2	7	248	0.00	30.172 
02:55	7.9	7.9	7.9	78	2.5	2	5	270	0.00	30.172 
03:00	7.7	7.7	7.7	79	2.6	1	6	248	0.00	30.172 
03:05	7.7	7.7	7.7	79	2.6	2	7	270	0.00	30.172 
03:10	7.7	7.7	7.7	79	2.6	3	7	248	0.00	30.172 
03:15	7.6	7.6	7.6	78	2.2	2	7	270	0.00	30.176 
03:20	7.4	7.4	7.4	79	2.3	3	8	270	0.00	30.176 
03:25	7.4	7.4	7.4	79	2.3	2	5	248	0.00	30.176 
03:30	7.2	7.2	7.2	79	2.1	3	9	270	0.00	30.180 
03:35	7.2	7.2	7.2	79	2.1	3	9	270	0.00	30.180 
03:40	7.0	7.0	7.0	79	1.9	3	11	270	0.00	30.180 
03:45	7.0	7.0	7.0	79	1.9	3	10	270	0.00	30.180 
03:50	6.9	6.9	6.9	79	1.8	1	4	270	0.00	30.180 
03:55	6.9	6.9	6.9	79	1.8	2	7	248	0.00	30.180 
04:00	6.7	6.7	6.7	79	1.6	2	6	270	0.00	30.179 
04:05	6.5	6.5	6.5	79	1.4	2	6	270	0.00	30.179 
04:10	6.5	6.5	6.5	79	1.4	2	5	248	0.00	30.179 
04:15	6.3	6.3	6.3	79	1.2	1	5	248	0.00	30.182 
04:20	6.3	6.3	6.3	79	1.2	2	5	248	0.00	30.182 
04:25	6.1	6.1	6.1	79	1.0	2	5	248	0.00	30.182 
04:30	6.1	6.1	6.1	79	1.0	1	6	270	0.00	30.183 
04:35	6.0	6.0	6.0	79	0.9	2	7	248	0.00	30.183 
04:40	6.0	6.0	6.0	79	0.9	1	5	248	0.00	30.183 
04:45	5.8	5.8	5.8	79	0.7	2	6	248	0.00	30.183 
04:50	5.8	5.8	5.8	79	0.7	2	6	248	0.00	30.183 
04:55	5.8	5.8	5.8	79	0.7	2	6	248	0.00	30.183 
05:00	5.6	5.6	5.6	79	0.5	2	5	248	0.00	30.181 
05:05	5.6	5.6	5.6	79	0.5	2	10	248	0.00	30.181 
05:10	5.4	5.4	5.4	79	0.3	1	6	248	0.00	30.181 
05:15	5.4	5.4	5.4	79	0.3	2	7	270	0.00	30.187 
05:20	5.4	5.4	5.4	79	0.3	2	9	270	0.00	30.187 
05:25	5.4	5.4	5.4	79	0.3	3	7	248	0.00	30.187 
05:30	5.2	5.2	5.2	79	0.1	2	6	248	0.00	30.187 
05:35	5.2	5.2	5.2	79	0.1	2	7	248	0.00	30.187 
05:40	5.2	5.2	5.2	79	0.1	2	5	248	0.00	30.187 
05:45	5.0	5.0	5.0	79	-0.1	1	6	248	0.00	30.196 
05:50	5.0	5.0	5.0	79	-0.1	2	6	270	0.00	30.196 
05:55	4.8	4.8	4.8	79	-0.3	1	5	270	0.00	30.196 
06:00	5.0	5.0	5.0	79	-0.1	2	7	270	0.00	30.204 
06:05	5.0	5.0	5.0	79	-0.1	3	10	270	0.00	30.204 
06:10	4.8	4.8	4.8	79	-0.3	3	9	270	0.00	30.204 
06:15	4.8	4.8	4.8	79	-0.3	2	11	270	0.00	30.203 
06:20	4.7	4.7	4.7	78	-0.6	1	5	248	0.00	30.203 
06:25	4.5	4.5	4.5	79	-0.5	1	9	270	0.00	30.203 
06:30	4.5	4.5	4.5	79	-0.5	1	4	248	0.00	30.206 
06:35	4.3	4.3	4.3	79	-0.7	1	3	248	0.00	30.206 
06:40	4.3	4.3	4.3	79	-0.7	1	4	248	0.00	30.206 
06:45	4.3	4.3	4.3	79	-0.7	2	6	270	0.00	30.213 
06:50	4.1	4.1	4.1	79	-0.9	2	5	270	0.00	30.213 
06:55	4.1	4.1	4.1	79	-0.9	1	4	248	0.00	30.213 
07:00	3.9	3.9	3.9	79	-1.1	1	5	270	0.00	30.212 
07:05	3.9	3.9	3.9	79	-1.1	1	6	270	0.00	30.212 
07:10	3.9	3.9	3.9	79	-1.1	2	8	248	0.00	30.212 
07:15	3.9	3.9	3.9	79	-1.1	2	5	270	0.00	30.221 
07:20	3.7	3.7	3.7	79	-1.3	2	8	270	0.00	30.221 
07:25	3.7	3.7	3.7	79	-1.3	2	6	248	0.00	30.221 
07:30	3.7	3.7	3.7	79	-1.3	2	6	248	0.00	30.221 
07:35	3.7	3.7	3.7	79	-1.3	1	7	248	0.00	30.221 
07:40	3.7	3.7	3.7	79	-1.3	2	9	270	0.00	30.221 
07:45	3.7	3.7	3.7	79	-1.3	2	6	270	0.00	30.230 
07:50	3.7	3.7	3.7	79	-1.3	2	5	248	0.00	30.230 
07:55	3.5	3.5	3.5	79	-1.5	2	5	248	0.00	30.230 
08:00	3.5	3.5	3.5	79	-1.5	1	3	248	0.00	30.227 
08:05	3.5	3.5	3.5	79	-1.5	1	4	248	0.00	30.227 
08:10	3.4	3.4	3.4	79	-1.6	1	6	270	0.00	30.227 
08:15	3.5	3.5	3.5	79	-1.5	1	6	248	0.00	30.233 
08:20	3.5	3.5	3.5	79	-1.5	1	5	270	0.00	30.233 
08:25	3.5	3.5	3.5	78	-1.8	1	4	248	0.00	30.233 
08:30	3.7	3.7	3.7	78	-1.6	2	7	248	0.00	30.234 
08:35	3.9	3.9	3.9	78	-1.4	1	5	248	0.00	30.234 
08:40	4.1	4.1	4.1	77	-1.5	2	5	270	0.00	30.234 
08:45	4.3	4.3	4.3	77	-1.3	3	7	248	0.00	30.234 
08:50	4.5	4.5	4.5	76	-1.4	3	7	270	0.00	30.234 
08:55	4.7	4.7	4.7	76	-1.2	2	7	248	0.00	30.234 
09:00	4.8	4.8	4.8	75	-1.4	3	6	270	0.00	30.234 
09:05	5.0	5.0	5.0	74	-1.4	2	6	270	0.00	30.234 
09:10	5.0	5.0	5.0	74	-1.4	2	9	248	0.00	30.234 
09:15	5.0	5.0	5.0	74	-1.4	2	6	270	0.00	30.236 
09:20	5.4	5.4	5.4	74	-1.1	3	7	270	0.00	30.236 
09:25	5.8	5.8	5.8	73	-1.0	2	6	270	0.00	30.236 
09:30	6.3	6.3	6.3	72	-0.8	3	6	270	0.00	30.234 
09:35	6.5	6.5	6.5	71	-0.9	2	6	270	0.00	30.234 
09:40	6.7	-1.1	6.7	70	-1.0	4	10	270	0.00	30.234 
09:45	7.0	7.0	7.0	70	-0.7	3	7	270	0.00	30.231 
09:50	7.2	7.2	7.2	69	-0.8	3	8	270	0.00	30.231 
09:55	7.2	7.2	7.2	68	-1.1	3	9	270	0.00	30.231 
10:00	7.6	7.6	7.6	69	-0.4	1	4	248	0.00	30.230 
10:05	7.7	7.7	7.7	68	-0.6	2	6	270	0.00	30.230 
10:10	7.9	7.9	7.9	67	-0.7	1	7	248	0.00	30.230 
10:15	8.3	8.3	8.3	67	-0.4	1	4	270	0.00	30.216 
10:20	8.4	8.4	8.4	66	-0.6	2	5	270	0.00	30.216 
10:25	8.8	8.8	8.8	65	-0.5	1	5	248	0.00	30.216 
10:30	9.2	9.2	9.2	64	-0.5	1	6	270	0.00	30.215 
10:35	9.3	9.3	9.3	64	-0.4	1	5	248	0.00	30.215 
10:40	9.7	9.7	9.7	63	-0.3	1	7	248	0.00	30.215 
10:45	10.2	10.2	10.2	63	0.1	1	4	248	0.00	30.219 
10:50	10.5	10.5	10.5	62	0.1	1	4	248	0.00	30.219 
10:55	10.9	10.9	10.9	61	0.1	1	5	248	0.00	30.219 
11:00	11.1	11.1	11.1	61	0.3	2	5	248	0.00	30.224 
11:05	11.2	11.2	11.2	62	0.8	2	6	248	0.00	30.224 
11:10	11.2	11.2	11.2	61	0.4	2	6	248	0.00	30.224 
11:15	11.4	11.4	11.4	60	0.2	3	7	248	0.00	30.220 
11:20	11.6	11.6	11.6	60	0.4	2	5	248	0.00	30.220 
11:25	11.9	11.9	11.9	60	0.7	2	7	248	0.00	30.220 
11:30	11.9	11.9	11.9	59	0.4	2	7	248	0.00	30.217 
11:35	12.3	12.3	12.3	58	0.4	2	6	248	0.00	30.217 
11:40	12.6	12.6	12.6	58	0.7	1	6	248	0.00	30.217 
11:45	12.9	12.9	12.9	56	0.2	2	9	248	0.00	30.213 
11:50	13.1	13.1	13.1	56	0.4	2	6	248	0.00	30.213 
11:55	13.1	13.1	13.1	54	-0.4	2	6	248	0.00	30.213 
12:00	13.3	13.3	13.3	54	-0.2	2	5	248	0.00	30.209 
12:05	13.3	13.3	13.3	54	-0.2	2	6	270	0.00	30.209 
12:10	13.8	13.8	13.8	55	0.7	2	5	248	0.00	30.209 
12:15	14.3	14.3	14.3	54	0.7	1	4	248	0.00	30.202 
12:20	14.4	14.4	14.4	52	0.0	2	6	248	0.00	30.202 
12:25	14.3	14.3	14.3	53	0.3	2	5	270	0.00	30.202 
12:30	14.4	14.4	14.4	53	0.4	2	5	248	0.00	30.195 
12:35	14.6	14.6	14.6	53	0.6	2	6	248	0.00	30.195 
12:40	14.8	14.8	14.8	53	0.8	3	6	248	0.00	30.195 
12:45	14.8	14.8	14.8	52	0.4	3	6	248	0.00	30.190 
12:50	15.2	15.2	15.2	51	0.4	2	6	248	0.00	30.190 
12:55	15.6	15.6	15.6	52	1.1	1	6	248	0.00	30.190 
13:00	15.7	15.7	15.7	53	1.6	1	4	248	0.00	30.174 
13:05	15.7	15.7	15.7	52	1.2	1	5	248	0.00	30.174 
13:10	15.6	15.6	15.6	50	0.3	2	6	248	0.00	30.174 
13:15	15.9	15.9	15.9	51	1.0	2	5	248	0.00	30.173 
13:20	16.1	16.1	16.1	52	1.6	2	5	248	0.00	30.173 
13:25	16.1	16.1	16.1	52	1.6	2	5	248	0.00	30.173 
13:30	15.9	15.9	15.9	54	2.2	1	4	248	0.00	30.162 
13:35	16.1	16.1	16.1	53	2.0	1	5	248	0.00	30.162 
13:40	16.2	16.2	16.2	52	1.7	1	5	248	0.00	30.162 
13:45	16.4	16.4	16.4	52	1.9	1	7	248	0.00	30.150 
13:50	16.4	16.4	16.4	50	1.1	2	6	248	0.00	30.150 
13:55	16.2	16.2	16.2	50	0.9	2	6	248	0.00	30.150 
14:00	16.2	16.2	16.2	50	0.9	2	5	248	0.00	30.147 
14:05	15.9	15.9	15.9	49	0.2	3	7	248	0.00	30.147 
14:10	15.9	15.9	15.9	49	0.2	2	6	248	0.00	30.147 
14:15	16.1	16.1	16.1	48	-0.1	2	5	248	0.00	30.144 
14:20	16.1	16.1	16.1	48	-0.1	2	5	248	0.00	30.144 
14:25	16.1	16.1	16.1	46	-1.0	2	5	248	0.00	30.144 
14:30	16.2	16.2	16.2	45	-1.4	2	6	270	0.00	30.135 
14:35	16.4	16.4	16.4	45	-1.2	2	5	248	0.00	30.135 
14:40	16.2	16.2	16.2	44	-1.8	3	7	248	0.00	30.135 
14:45	16.4	16.4	16.4	45	-1.2	2	6	248	0.00	30.131 
14:50	16.5	16.5	16.5	44	-1.6	2	9	248	0.00	30.131 
14:55	16.7	16.7	16.7	46	-0.4	1	5	248	0.00	30.131 
15:00	17.0	17.0	17.0	46	-0.2	1	3	248	0.00	30.117 
15:05	17.3	17.3	17.3	43	-1.3	2	5	270	0.00	30.117 
15:10	17.7	17.7	17.7	44	-0.5	2	5	248	0.00	30.117 
15:15	17.3	17.3	17.3	43	-1.3	2	5	248	0.00	30.118 
15:20	17.5	17.5	17.5	43	-1.1	2	5	248	0.00	30.118 
15:25	17.8	17.8	17.8	43	-0.9	3	5	248	0.00	30.118 
15:30	17.8	17.8	17.8	44	-0.4	2	7	270	0.00	30.119 
15:35	18.1	18.1	18.1	44	-0.1	1	4	248	0.00	30.119 
15:40	18.1	18.1	18.1	43	-0.6	2	6	248	0.00	30.119 
15:45	18.0	18.0	18.0	45	0.3	2	5	270	0.00	30.118 
15:50	18.0	18.0	18.0	44	-0.2	2	6	248	0.00	30.118 
15:55	17.8	17.8	17.8	45	0.1	2	5	248	0.00	30.118 
16:00	17.8	17.8	17.8	46	0.6	2	6	248	0.00	30.113 
16:05	17.8	17.8	17.8	46	0.6	1	4	248	0.00	30.113 
16:10	17.7	17.7	17.7	46	0.5	2	6	248	0.00	30.113 
16:15	17.7	17.7	17.7	47	0.9	1	4	248	0.00	30.108 
16:20	17.5	17.5	17.5	47	0.7	2	5	248	0.00	30.108 
16:25	17.3	17.3	17.3	47	0.6	2	7	248	0.00	30.108 
16:30	17.3	17.3	17.3	48	1.0	2	9	248	0.00	30.109 
16:35	17.5	17.5	17.5	48	1.2	1	6	248	0.00	30.109 
16:40	17.5	17.5	17.5	47	0.7	2	6	248	0.00	30.109 
16:45	17.3	17.3	17.3	49	1.5	1	6	248	0.00	30.101 
16:50	17.2	17.2	17.2	50	1.8	2	6	248	0.00	30.101 
16:55	17.2	17.2	17.2	51	2.2	1	5	248	0.00	30.101 
17:00	17.0	17.0	17.0	51	2.0	1	4	248	0.00	30.100 
17:05	17.0	17.0	17.0	52	2.4	1	4	248	0.00	30.100 
17:10	17.0	17.0	17.0	53	2.9	1	5	248	0.00	30.100 
17:15	17.0	17.0	17.0	53	2.9	1	4	248	0.00	30.090 
17:20	17.0	17.0	17.0	54	3.3	0	2	248	0.00	30.090 
17:25	17.0	17.0	17.0	54	3.3	1	3	248	0.00	30.090 
17:30	16.9	16.9	16.9	55	3.6	1	3	248	0.00	30.086 
17:35	16.9	16.9	16.9	55	3.6	1	3	248	0.00	30.086 
17:40	16.9	16.9	16.9	56	4.0	1	3	248	0.00	30.086 
17:45	16.7	16.7	16.7	56	3.8	1	4	248	0.00	30.079 
17:50	16.7	16.7	16.7	57	4.1	1	3	248	0.00	30.079 
17:55	16.7	16.7	16.7	58	4.5	1	3	248	0.00	30.079 
18:00	16.5	16.5	16.5	58	4.3	0	3	248	0.00	30.070 
18:05	16.5	16.5	16.5	59	4.7	0	2	248	0.00	30.070 
18:10	16.5	16.5	16.5	60	5.1	0	3	248	0.00	30.070 
18:15	16.5	16.5	16.5	62	5.8	0	1	225	0.00	30.068 
18:20	16.5	16.5	16.5	62	5.8	0	1	225	0.00	30.068 
18:25	16.5	16.5	16.5	62	5.8	0	4	225	0.00	30.068 
18:30	16.5	16.5	16.5	63	6.1	0	1	248	0.00	30.069 
18:35	16.4	16.4	16.4	63	6.0	0	3	248	0.00	30.069 
18:40	16.5	16.5	16.5	63	6.1	0	3	248	0.00	30.069 
18:45	16.5	16.5	16.5	63	6.1	0	2	248	0.00	30.068 
18:50	16.5	16.5	16.5	64	6.5	0	1	248	0.00	30.068 
18:55	16.5	16.5	16.5	65	6.8	0	2	248	0.00	30.068 
19:00	16.5	16.5	16.5	65	6.8	0	2	248	0.00	30.063 
19:05	16.5	16.5	16.5	65	6.8	0	3	248	0.00	30.063 
19:10	16.5	16.5	16.5	65	6.8	0	1	225	0.00	30.063 
19:15	16.5	16.5	16.5	65	6.8	0	2	225	0.00	30.055 
19:20	16.7	16.7	16.7	65	7.0	0	1	225	0.00	30.055 
19:25	16.7	16.7	16.7	65	7.0	1	2	112	0.00	30.055 
19:30	16.7	16.7	16.7	66	7.3	1	3	90	0.00	30.048 
19:35	16.7	16.7	16.7	66	7.3	1	3	90	0.00	30.048 
19:40	16.7	16.7	16.7	66	7.3	0	1	112	0.00	30.048 
19:45	16.9	16.9	16.9	66	7.5	0	2	112	0.00	30.042 
19:50	16.7	16.7	16.7	66	7.3	0	1	112	0.00	30.042 
19:55	16.7	16.7	16.7	66	7.3	0	1	112	0.00	30.042 
20:00	16.9	16.9	16.9	67	7.9	0	3	225	0.00	30.039 
20:05	16.9	16.9	16.9	66	7.5	0	2	225	0.00	30.039 
20:10	17.0	17.0	17.0	66	7.6	0	2	180	0.00	30.039 
20:15	17.2	17.2	17.2	66	7.8	1	3	158	0.00	30.024 
20:20	17.2	17.2	17.2	66	7.8	1	3	90	0.00	30.024 
20:25	17.2	17.2	17.2	66	7.8	0	2	90	0.00	30.024 
20:30	17.2	17.2	17.2	66	7.8	0	2	90	0.00	30.020 
20:35	17.2	17.2	17.2	66	7.8	0	1	68	0.00	30.020 
20:40	17.2	17.2	17.2	66	7.8	0	2	68	0.00	30.020 
20:45	17.3	17.3	17.3	65	7.6	1	6	112	0.00	30.009 
20:50	17.5	17.5	17.5	66	8.1	1	4	90	0.00	30.009 
20:55	17.7	17.7	17.7	65	8.0	1	3	90	0.00	30.009 
21:00	17.8	17.8	17.8	66	8.4	1	4	112	0.00	30.002 
21:05	17.8	17.8	17.8	67	8.7	1	2	112	0.00	30.002 
21:10	18.0	18.0	18.0	67	8.9	1	3	90	0.00	30.002 
21:15	18.0	18.0	18.0	66	8.6	1	6	112	0.00	29.986 
21:20	18.1	18.1	18.1	65	8.3	1	5	90	0.00	29.986 
21:25	18.3	18.3	18.3	65	8.5	1	4	112	0.00	29.986 
21:30	18.3	18.3	18.3	65	8.5	1	4	90	0.00	29.980 
21:35	18.3	18.3	18.3	66	8.9	1	2	112	0.00	29.980 
21:40	18.3	18.3	18.3	67	9.2	0	2	270	0.00	29.980 
21:45	18.4	18.4	18.4	67	9.3	0	2	270	0.00	29.972 
21:50	18.4	18.4	18.4	68	9.6	0	3	0	0.00	29.972 
21:55	18.4	18.4	18.4	67	9.3	0	2	45	0.00	29.972 
22:00	18.4	18.4	18.4	68	9.6	0	3	45	0.00	29.971 
22:05	18.6	18.6	18.6	67	9.5	0	1	135	0.00	29.971 
22:10	18.6	18.6	18.6	68	9.8	0	2	90	0.00	29.971 
22:15	18.8	18.8	18.8	67	9.7	1	2	45	0.00	29.963 
22:20	18.9	18.9	18.9	66	9.4	1	3	292	0.00	29.963 
22:25	18.9	18.9	18.9	65	9.1	1	3	270	0.00	29.963 
22:30	19.1	19.1	19.1	65	9.3	0	3	270	0.00	29.953 
22:35	19.1	19.1	19.1	64	9.0	1	5	248	0.00	29.953 
22:40	19.1	19.1	19.1	65	9.3	0	2	248	0.00	29.953 
22:45	19.1	19.1	19.1	64	9.0	1	2	248	0.00	29.954 
22:50	19.1	19.1	19.1	64	9.0	1	4	248	0.00	29.954 
22:55	19.1	19.1	19.1	64	9.0	1	4	248	0.00	29.954 
23:00	19.1	19.1	19.1	65	9.3	0	1	248	0.00	29.951 
23:05	19.1	19.1	19.1	65	9.3	0	2	248	0.00	29.951 
23:10	18.9	18.9	18.9	65	9.1	1	3	248	0.00	29.951 
23:15	18.9	18.9	18.9	65	9.1	0	1	270	0.00	29.941 
23:20	18.9	18.9	18.9	65	9.1	0	1	270	0.00	29.941 
23:25	18.8	18.8	18.8	65	9.0	0	1	270	0.00	29.941 
23:30	18.6	18.6	18.6	66	9.2	0	3	202	0.00	29.935 
23:35	18.4	18.4	18.4	66	9.0	0	1	202	0.00	29.935 
23:40	18.3	18.3	18.3	66	8.9	0	1	202	0.00	29.935 
23:45	18.0	18.0	18.0	66	8.6	0	1	202	0.00	29.934 
23:50	17.8	17.8	17.8	67	8.7	0	1	202	0.00	29.934 
23:55	17.7	17.7	17.7	67	8.6	0	1	202	0.00	29.934 

CoCoRaHS
IN-AL-39
A2 Web Hosting
Creative Commons License
GoDaddy
Look for:

loaded 2017-12-11 12:15:02 • last modified 2010-11-18 10:43:29
Privacy PolicyDisclaimer
• wx.awcolley.com is powered by PmWiki v.2002016 •
• all content (unless otherwise noted) © 2017 A W Colley